Plano's Hourly Summary for Tuesday, March 14, 2017
Hour Temp
(f)
RH
(%)
Solar Rad.
(MJ/m2)
Rainfall
(in)
Wind
(mph)
3/14/2017 12:00 AM 44 41 0 0 2.76
3/14/2017 1:00 AM 42 47 0 0 1.59
3/14/2017 2:00 AM 41 49 0 0 1.44
3/14/2017 3:00 AM 41 50 0 0 1.74
3/14/2017 4:00 AM 39 51 0 0 0.17
3/14/2017 5:00 AM 37 58 0 0 0.06
3/14/2017 6:00 AM 37 58 0 0 0.21
3/14/2017 7:00 AM 37 59 0 0 0.26
3/14/2017 8:00 AM 36 60 0.02 0 0.1
3/14/2017 9:00 AM 40 52 0.36 0 1
3/14/2017 10:00 AM 43 47 1.05 0 3.32
3/14/2017 11:00 AM 46 44 1.76 0 3.26
3/14/2017 12:00 PM 49 40 2.33 0 2.76
3/14/2017 1:00 PM 52 37 2.73 0 3.06
3/14/2017 2:00 PM 55 33 2.9 0 2.77
3/14/2017 3:00 PM 57 30 2.78 0 3.01
3/14/2017 4:00 PM 60 28 2.55 0 3.48
3/14/2017 5:00 PM 61 26 2 0 3.31
3/14/2017 6:00 PM 62 27 1.23 0 2.62
3/14/2017 7:00 PM 60 30 0.28 0 2.44
3/14/2017 8:00 PM 58 34 0.04 0 3.26
3/14/2017 9:00 PM 56 37 0 0 2.6
3/14/2017 10:00 PM 55 38 0 0 2
3/14/2017 11:00 PM 54 42 0 0 3
Data Summary 48 42 20.03 0.00 2.09